Pagina principale
METAR-TAF:

METAR-TAF

Aeroporti :

Base di Solenzara

Solenzara, Francia

latitudine: 41-55N, longitudine: 009-24E, altezza: 8 m

Osservazione

Il bollettino è stato emesso 30 minuti fa, alle 12:00 UTC
Vento 9 kt da nord/nord-est
Temperature 7°C
Umidità 53%
Pressione 1031 hPa
Visibilità 10 km o più
Cielo coperto ad un'altezza di 5400 ft

METAR: LFKS 091200Z AUTO 02009KT 9999 OVC054 07/M02 Q1031

Ora: 13:30 (12:30 UTC)

Previsione

Il bollettino è stato emesso 4 ore e 30 minuti fa, alle 08:00 UTC
Previsione valida dal 09 alle 09 UTC al 10 alle 09 UTC
Vento 8 kt da nord
Visibilità 10 km o più
Nuvoloso ad un'altezza di 4000 ft
Temporaneamente
dal 09 alle 09 UTC al 09 alle 15 UTC
Vento 10 kt da nord con raffiche fino a 20 kt
Nuvoloso ad un'altezza di 1200 ft
rovesci di pioggia

TAF: LFKS 090800Z 0909/1009 36008KT 9999 BKN040 TEMPO 0909/0915 36010G20KT -SHRA BKN012

Osservazioni e previsioni meteorologiche di più di 4000 aeroporti (messaggi METAR e TAF).

Le stazioni disponibili sono rappresentate dai dischi gialli e rossi sulla carta.

Puntare il mouse per vedere il nome della stazione.

Clicca sopra per visualizzare le osservazioni e previsioni meteorologiche.

Per cambiare la mappa : fare clic sui pulsanti verdi con una croce nera per ingrandire, il pulsante verde con un trattino per diminuire, o sulla freccia verde per le mappe adiacenti.


METAR-TAF: